McIntyre, Pennsylvania
Current Conditions -  °F | °C
As of 12:55 PM on Friday 21 Nov 2014 (Local Time) from KIDI Reporting Station
Overcast Overcast  
Wind Chill: 18°   Ceiling: 3500
Heat Index: 27°   Visibility: 10mi
Dew Point: 10°   Wind: 8mph
Humidity: 51%   Direction: 280°W
Pressure: 30.45"   Gusts: NA
Location:  40.57°N, 79.3°W
Report Text: KIDI 211755Z AUTO 28007KT 10SM SCT028 BKN035 OVC040 M03/M12 A3045 RMK A01
Loading
Personal Weather Stations






























Interactive Weather Map New forecast layout! Learn more

10-Day Weather Forecast

Advertisements
Track Severe Weather on mobile